Time;durP1;ratioP1;P1;durP2;ratioP2;P2;SDS_P1;SDS_P2;PMS_P1;PMS_P2;Temp;Humidity;BMP_temperature;BMP_pressure;BME280_temperature;BME280_humidity;BME280_pressure;Samples;Min_cycle;Max_cycle;Signal;HPM_P1;HPM_P2
2024/03/05 00:00:10;;;;;;;;;;;;;;;7.17;100.00;96025.50;5064013;28;19940;-69
2024/03/05 00:02:43;;;;;;;;;;;;;;;7.16;100.00;96023.91;5064395;28;19936;-69
2024/03/05 00:05:12;;;;;;;;;;;;;;;7.16;100.00;96027.31;5064227;28;19936;-69
2024/03/05 00:07:38;;;;;;;;;;;;;;;7.15;100.00;96024.91;5063642;28;20123;-70
2024/03/05 00:10:04;;;;;;;;;;;;;;;7.16;100.00;96023.91;5063817;28;19942;-69
2024/03/05 00:12:31;;;;;;;;;;;;;;;7.17;100.00;96028.91;5063759;28;20216;-75
2024/03/05 00:14:57;;;;;;;;;;;;;;;7.16;100.00;96032.53;5064461;28;19937;-71
2024/03/05 00:17:26;;;;;;;;;;;;;;;7.17;100.00;96031.50;5062998;28;19999;-71
2024/03/05 00:19:52;;;;;;;;;;;;;;;7.18;100.00;96029.69;5064167;28;20107;-70
2024/03/05 00:22:18;;;;;;;;;;;;;;;7.19;100.00;96033.94;5064147;28;19939;-70
2024/03/05 00:24:44;;;;;;;;;;;;;;;7.19;100.00;96039.16;5063653;28;20226;-70
2024/03/05 00:27:10;;;;;;;;;;;;;;;7.19;100.00;96047.75;5063461;28;20004;-70
2024/03/05 00:29:36;;;;;;;;;;;;;;;7.20;100.00;96043.34;5063540;28;20006;-73
2024/03/05 00:32:02;;;;;;;;;;;;;;;7.19;100.00;96034.72;5046087;28;19950;-75
2024/03/05 00:34:28;;;;;;;;;;;;;;;7.19;100.00;96039.16;5063471;28;19936;-76
2024/03/05 00:36:54;;;;;;;;;;;;;;;7.19;100.00;96036.53;5063448;28;19971;-75
2024/03/05 00:39:20;;;;;;;;;;;;;;;7.18;100.00;96042.75;5063470;28;19941;-74
2024/03/05 00:41:46;;;;;;;;;;;;;;;7.18;100.00;96042.75;5063461;28;20218;-74
2024/03/05 00:44:12;;;;;;;;;;;;;;;7.18;100.00;96050.56;5063356;28;19945;-73
2024/03/05 00:46:38;;;;;;;;;;;;;;;7.18;100.00;96046.16;5062708;28;19941;-69
2024/03/05 00:49:03;;;;;;;;;;;;;;;7.17;100.00;96047.16;5063260;28;19958;-78
2024/03/05 00:51:29;;;;;;;;;;;;;;;7.17;100.00;96054.19;5062035;28;19946;-70
2024/03/05 00:53:55;;;;;;;;;;;;;;;7.13;100.00;96055.59;5063323;28;19943;-71
2024/03/05 00:56:22;;;;;;;;;;;;;;;7.13;100.00;96059.00;5063527;28;19998;-70
2024/03/05 00:58:47;;;;;;;;;;;;;;;7.12;100.00;96054.81;5063811;28;20105;-70
2024/03/05 01:01:15;;;;;;;;;;;;;;;7.13;100.00;96059.00;5029845;28;19934;-70
2024/03/05 01:03:41;;;;;;;;;;;;;;;7.13;100.00;96045.97;5063238;28;19933;-70
2024/03/05 01:06:07;;;;;;;;;;;;;;;7.13;100.00;96045.19;5045506;28;20237;-77
2024/03/05 01:08:33;;;;;;;;;;;;;;;7.11;100.00;96043.56;5045984;28;20001;-69
2024/03/05 01:11:00;;;;;;;;;;;;;;;7.10;100.00;96055.00;5046495;28;19935;-70
2024/03/05 01:13:26;;;;;;;;;;;;;;;7.07;100.00;96050.19;5066813;28;19936;-69
2024/03/05 01:15:52;;;;;;;;;;;;;;;7.07;100.00;96050.19;5067289;28;20238;-69
2024/03/05 01:18:18;;;;;;;;;;;;;;;7.07;100.00;96041.56;5049423;28;19931;-69
2024/03/05 01:20:44;;;;;;;;;;;;;;;7.08;100.00;96049.19;5066705;28;19946;-69
2024/03/05 01:23:10;;;;;;;;;;;;;;;7.09;100.00;96052.59;5048880;28;19941;-70
2024/03/05 01:25:39;;;;;;;;;;;;;;;7.08;100.00;96049.19;5048890;28;19942;-72
2024/03/05 01:28:07;;;;;;;;;;;;;;;7.10;100.00;96051.59;5066441;28;19948;-71
2024/03/05 01:30:33;;;;;;;;;;;;;;;7.10;100.00;96052.41;5032292;28;20128;-71
2024/03/05 01:33:03;;;;;;;;;;;;;;;7.10;100.00;96047.19;5066689;28;19931;-71
2024/03/05 01:35:30;;;;;;;;;;;;;;;7.11;100.00;96054.00;5066926;28;19938;-71
2024/03/05 01:37:56;;;;;;;;;;;;;;;7.10;100.00;96044.59;5066341;28;19971;-72
2024/03/05 01:40:22;;;;;;;;;;;;;;;7.11;100.00;96048.78;5066311;28;19939;-71
2024/03/05 01:42:48;;;;;;;;;;;;;;;7.12;100.00;96049.59;5066752;28;20220;-74
2024/03/05 01:45:15;;;;;;;;;;;;;;;7.11;100.00;96047.97;5066209;28;19958;-69
2024/03/05 01:47:41;;;;;;;;;;;;;;;7.10;100.00;96055.00;5066839;28;20234;-70
2024/03/05 01:50:09;;;;;;;;;;;;;;;7.09;100.00;96053.41;5049017;28;19945;-69
2024/03/05 01:52:36;;;;;;;;;;;;;;;7.08;100.00;96051.81;5066325;28;19950;-69
2024/03/05 01:55:06;;;;;;;;;;;;;;;7.09;100.00;96055.22;5048305;28;20003;-69
2024/03/05 01:57:32;;;;;;;;;;;;;;;7.05;100.00;96044.38;5066470;28;20211;-69
2024/03/05 01:59:58;;;;;;;;;;;;;;;7.03;100.00;96049.00;5065906;28;20223;-73
2024/03/05 02:02:24;;;;;;;;;;;;;;;7.02;100.00;96044.81;5065901;28;19947;-72
2024/03/05 02:04:51;;;;;;;;;;;;;;;7.02;100.00;96042.19;5065800;28;19936;-78
2024/03/05 02:07:17;;;;;;;;;;;;;;;7.02;100.00;96044.81;5048144;28;19936;-79
2024/03/05 02:09:44;;;;;;;;;;;;;;;7.01;100.00;96040.56;5065686;28;19958;-78
2024/03/05 02:12:10;;;;;;;;;;;;;;;7.01;100.00;96040.56;5065641;28;20120;-81
2024/03/05 02:14:36;;;;;;;;;;;;;;;7.01;100.00;96043.19;5031801;28;19937;-78
2024/03/05 02:17:02;;;;;;;;;;;;;;;7.01;100.00;96045.00;5065647;28;19935;-78
2024/03/05 02:19:31;;;;;;;;;;;;;;;7.00;100.00;96043.41;5066426;28;20207;-79
2024/03/05 02:22:02;;;;;;;;;;;;;;;6.99;100.00;96047.00;5065916;28;19950;-81
2024/03/05 02:24:31;;;;;;;;;;;;;;;6.98;100.00;96043.63;5065596;28;20100;-83
2024/03/05 02:26:59;;;;;;;;;;;;;;;6.97;100.00;96043.81;5065444;28;19938;-83
2024/03/05 02:29:25;;;;;;;;;;;;;;;6.95;100.00;96041.44;5047608;28;20216;-82
2024/03/05 02:31:51;;;;;;;;;;;;;;;6.95;100.00;96044.03;5066176;28;19946;-80
2024/03/05 02:34:17;;;;;;;;;;;;;;;6.94;100.00;96039.00;5030947;28;19945;-82
2024/03/05 02:36:43;;;;;;;;;;;;;;;6.93;100.00;96046.03;5047220;28;19969;-73
2024/03/05 02:39:09;;;;;;;;;;;;;;;6.93;100.00;96034.78;5065166;28;19949;-69
2024/03/05 02:41:36;;;;;;;;;;;;;;;6.91;100.00;96038.41;5047831;28;20129;-72
2024/03/05 02:44:02;;;;;;;;;;;;;;;6.92;100.00;96039.22;5065297;28;19937;-72
2024/03/05 02:46:28;;;;;;;;;;;;;;;6.92;100.00;96041.81;5065039;28;20226;-72
2024/03/05 02:48:54;;;;;;;;;;;;;;;6.91;100.00;96042.84;5063981;28;19947;-72
2024/03/05 02:51:20;;;;;;;;;;;;;;;6.89;100.00;96043.03;5065450;28;19943;-71
2024/03/05 02:53:46;;;;;;;;;;;;;;;6.90;100.00;96043.81;5065727;28;20223;-72
2024/03/05 02:56:12;;;;;;;;;;;;;;;6.89;100.00;96045.66;5047795;28;20008;-87
2024/03/05 02:58:38;;;;;;;;;;;;;;;6.90;100.00;96049.03;5064890;28;19939;-89
2024/03/05 03:01:07;;;;;;;;;;;;;;;6.90;100.00;96051.66;5064918;28;20257;-86
2024/03/05 03:03:34;;;;;;;;;;;;;;;6.90;100.00;96060.25;5064739;28;19937;-86
2024/03/05 03:06:02;;;;;;;;;;;;;;;6.88;100.00;96054.44;5064678;28;19938;-85
2024/03/05 03:08:28;;;;;;;;;;;;;;;6.89;100.00;96048.25;5064525;28;19965;-86
2024/03/05 03:10:55;;;;;;;;;;;;;;;6.90;100.00;96047.22;5064555;28;19950;-83
2024/03/05 03:13:21;;;;;;;;;;;;;;;6.90;100.00;96052.44;5065306;28;19932;-70
2024/03/05 03:15:47;;;;;;;;;;;;;;;6.89;100.00;96053.47;5047816;28;19943;-73
2024/03/05 03:18:13;;;;;;;;;;;;;;;6.87;100.00;96060.69;5064390;28;19966;-76
2024/03/05 03:20:40;;;;;;;;;;;;;;;6.89;100.00;96069.09;5046780;28;19936;-75
2024/03/05 03:23:05;;;;;;;;;;;;;;;6.87;100.00;96062.50;5046735;28;20222;-76
2024/03/05 03:25:31;;;;;;;;;;;;;;;6.86;100.00;96061.66;5064310;28;19980;-75
2024/03/05 03:27:58;;;;;;;;;;;;;;;6.85;100.00;96057.47;5064746;28;19959;-77
2024/03/05 03:30:25;;;;;;;;;;;;;;;6.85;100.00;96065.28;5064195;28;19934;-75
2024/03/05 03:32:52;;;;;;;;;;;;;;;6.85;100.00;96072.31;5064072;28;19943;-69
2024/03/05 03:35:18;;;;;;;;;;;;;;;6.84;100.00;96073.31;5063785;28;19946;-73
2024/03/05 03:37:44;;;;;;;;;;;;;;;6.84;100.00;96070.72;5046323;28;20183;-73
2024/03/05 03:40:20;;;;;;;;;;;;;;;6.83;100.00;96069.13;5064882;28;19939;-73
2024/03/05 03:42:47;;;;;;;;;;;;;;;6.83;100.00;96075.13;5064096;28;20219;-72
2024/03/05 03:45:13;;;;;;;;;;;;;;;6.83;100.00;96077.72;5064040;28;19931;-72
2024/03/05 03:47:39;;;;;;;;;;;;;;;6.83;100.00;96079.53;5064012;28;19936;-73
2024/03/05 03:50:07;;;;;;;;;;;;;;;6.84;100.00;96078.53;5064406;28;19960;-73
2024/03/05 03:52:33;;;;;;;;;;;;;;;6.83;100.00;96077.72;5030454;28;19987;-72
2024/03/05 03:54:59;;;;;;;;;;;;;;;6.83;100.00;96074.34;5046818;28;19949;-69
2024/03/05 03:57:28;;;;;;;;;;;;;;;6.82;100.00;96080.53;5064392;28;19959;-69
2024/03/05 03:59:54;;;;;;;;;;;;;;;6.79;100.00;96076.53;5046149;28;20219;-69
2024/03/05 04:02:23;;;;;;;;;;;;;;;6.79;100.00;96083.56;5064259;28;19936;-69
2024/03/05 04:04:49;;;;;;;;;;;;;;;6.78;100.00;96082.72;5064295;28;19939;-69
2024/03/05 04:07:18;;;;;;;;;;;;;;;6.78;100.00;96080.13;5063981;28;19934;-69
2024/03/05 04:09:44;;;;;;;;;;;;;;;6.79;100.00;96093.97;5063856;28;19953;-73
2024/03/05 04:12:12;;;;;;;;;;;;;;;6.78;100.00;96085.34;5063783;28;19941;-69
2024/03/05 04:14:38;;;;;;;;;;;;;;;6.78;100.00;96090.56;5063954;28;19938;-69
2024/03/05 04:17:04;;;;;;;;;;;;;;;6.78;100.00;96090.56;5045919;28;19940;-69
2024/03/05 04:19:30;;;;;;;;;;;;;;;6.78;100.00;96095.75;5063672;28;19935;-69
2024/03/05 04:21:56;;;;;;;;;;;;;;;6.80;100.00;96091.16;5063623;28;19987;-69
2024/03/05 04:24:22;;;;;;;;;;;;;;;6.79;100.00;96086.97;5046443;28;19944;-70
2024/03/05 04:26:50;;;;;;;;;;;;;;;6.80;100.00;96092.97;5063573;28;19943;-69
2024/03/05 04:29:16;;;;;;;;;;;;;;;6.81;100.00;96090.16;5063487;28;19973;-70
2024/03/05 04:31:54;;;;;;;;;;;;;;;6.80;100.00;96091.16;5064091;28;19941;-73
2024/03/05 04:34:21;;;;;;;;;;;;;;;6.80;100.00;96100.78;5064357;28;19971;-72
2024/03/05 04:36:46;;;;;;;;;;;;;;;6.80;100.00;96093.75;5063640;28;19963;-72
2024/03/05 04:39:15;;;;;;;;;;;;;;;6.79;100.00;96092.16;5063979;28;20013;-73
2024/03/05 04:41:44;;;;;;;;;;;;;;;6.80;100.00;96093.75;5045754;28;19942;-72
2024/03/05 04:44:10;;;;;;;;;;;;;;;6.81;100.00;96097.97;5046456;28;20131;-73
2024/03/05 04:46:36;;;;;;;;;;;;;;;6.80;100.00;96096.38;5065815;28;19937;-72
2024/03/05 04:49:02;;;;;;;;;;;;;;;6.81;100.00;96095.38;5067770;28;19968;-71
2024/03/05 04:51:28;;;;;;;;;;;;;;;6.82;100.00;96093.56;5068079;28;19936;-71
2024/03/05 04:53:54;;;;;;;;;;;;;;;6.80;100.00;96091.16;5067238;28;19927;-72
2024/03/05 04:56:22;;;;;;;;;;;;;;;6.81;100.00;96094.59;5067909;28;19997;-70
2024/03/05 04:58:48;;;;;;;;;;;;;;;6.80;100.00;96100.78;5067124;28;19938;-72
2024/03/05 05:01:14;;;;;;;;;;;;;;;6.80;100.00;96095.56;5067068;28;19927;-72
2024/03/05 05:03:42;;;;;;;;;;;;;;;6.81;100.00;96110.22;5067616;28;19974;-72
2024/03/05 05:06:09;;;;;;;;;;;;;;;6.81;100.00;96099.78;5066999;28;19943;-73
2024/03/05 05:08:35;;;;;;;;;;;;;;;6.81;100.00;96100.59;5049140;28;19958;-75
2024/03/05 05:11:01;;;;;;;;;;;;;;;6.82;100.00;96107.38;5067432;28;19951;-75
2024/03/05 05:13:26;;;;;;;;;;;;;;;6.82;100.00;96104.78;5049011;28;19941;-74
2024/03/05 05:15:54;;;;;;;;;;;;;;;6.81;100.00;96103.19;5049900;28;19936;-74
2024/03/05 05:18:20;;;;;;;;;;;;;;;6.81;100.00;96105.81;5066730;28;19946;-74
2024/03/05 05:20:46;;;;;;;;;;;;;;;6.82;100.00;96099.56;5067494;28;19937;-74
2024/03/05 05:23:12;;;;;;;;;;;;;;;6.82;100.00;96102.19;5067435;28;19941;-69
2024/03/05 05:25:37;;;;;;;;;;;;;;;6.83;100.00;96105.59;5066890;28;19932;-72
2024/03/05 05:28:05;;;;;;;;;;;;;;;6.84;100.00;96105.38;5049352;28;19939;-73
2024/03/05 05:30:31;;;;;;;;;;;;;;;6.84;100.00;96102.78;5066457;28;19960;-72
2024/03/05 05:32:57;;;;;;;;;;;;;;;6.85;100.00;96108.81;5067311;28;20210;-71
2024/03/05 05:35:23;;;;;;;;;;;;;;;6.85;100.00;96112.22;5066405;28;19936;-72
2024/03/05 05:37:49;;;;;;;;;;;;;;;6.84;100.00;96108.00;5066234;28;19962;-72
2024/03/05 05:40:18;;;;;;;;;;;;;;;6.84;100.00;96115.81;5065547;28;19950;-72
2024/03/05 05:42:47;;;;;;;;;;;;;;;6.77;100.00;96106.41;5066316;28;19944;-73
2024/03/05 05:45:12;;;;;;;;;;;;;;;6.74;100.00;96107.63;5066823;28;19931;-68
2024/03/05 05:47:42;;;;;;;;;;;;;;;6.71;100.00;96108.00;5066248;28;19980;-69
2024/03/05 05:50:17;;;;;;;;;;;;;;;6.68;100.00;96095.41;5066622;28;20128;-69
2024/03/05 05:52:51;;;;;;;;;;;;;;;6.68;100.00;96105.81;5066918;28;19933;-68
2024/03/05 05:55:20;;;;;;;;;;;;;;;6.67;100.00;96110.22;5031669;28;19945;-70
2024/03/05 05:57:47;;;;;;;;;;;;;;;6.70;100.00;96114.25;5065517;28;19946;-70
2024/03/05 06:00:22;;;;;;;;;;;;;;;6.71;100.00;96113.22;5048122;28;19946;-83
2024/03/05 06:02:53;;;;;;;;;;;;;;;6.71;100.00;96116.63;5048995;28;19946;-69
2024/03/05 06:05:19;;;;;;;;;;;;;;;6.72;100.00;96120.06;5048189;28;19939;-69
2024/03/05 06:07:45;;;;;;;;;;;;;;;6.73;100.00;96121.63;5065732;28;19942;-69
2024/03/05 06:10:14;;;;;;;;;;;;;;;6.73;100.00;96124.25;5048603;28;19955;-69
2024/03/05 06:12:40;;;;;;;;;;;;;;;6.72;100.00;96125.25;5064957;28;20026;-69
2024/03/05 06:15:08;;;;;;;;;;;;;;;6.72;100.00;96125.25;5048038;28;19955;-69
2024/03/05 06:17:34;;;;;;;;;;;;;;;6.71;100.00;96128.84;5066217;28;20083;-69
2024/03/05 06:19:59;;;;;;;;;;;;;;;6.68;100.00;96122.25;5066222;28;19940;-73
2024/03/05 06:22:25;;;;;;;;;;;;;;;6.68;100.00;96130.06;5065572;28;19938;-75
2024/03/05 06:24:51;;;;;;;;;;;;;;;6.68;100.00;96131.88;5047793;28;19939;-75
2024/03/05 06:27:18;;;;;;;;;;;;;;;6.69;100.00;96133.47;5047750;28;19940;-75
2024/03/05 06:29:45;;;;;;;;;;;;;;;6.69;100.00;96130.84;5065877;28;19952;-75
2024/03/05 06:32:11;;;;;;;;;;;;;;;6.66;100.00;96133.88;5066065;28;19944;-75
2024/03/05 06:34:37;;;;;;;;;;;;;;;6.59;100.00;96138.28;5048306;28;19976;-75
2024/03/05 06:37:03;;;;;;;;;;;;;;;6.57;100.00;96142.88;5065419;28;19960;-69
2024/03/05 06:39:29;;;;;;;;;;;;;;;6.58;100.00;96144.50;5047535;28;19946;-75
2024/03/05 06:41:58;;;;;;;;;;;;;;;6.61;100.00;96144.09;5048022;28;19941;-75
2024/03/05 06:44:25;;;;;;;;;;;;;;;6.60;100.00;96145.91;5065913;28;19959;-75
2024/03/05 06:46:51;;;;;;;;;;;;;;;6.58;100.00;96147.09;5065576;28;19946;-75
2024/03/05 06:49:26;;;;;;;;;;;;;;;6.58;100.00;96145.28;5065458;28;19955;-75
2024/03/05 06:51:55;;;;;;;;;;;;;;;6.63;100.00;96144.69;5065780;28;19936;-75
2024/03/05 06:57:08;;;;;;;;;;;;;;;6.68;100.00;96150.13;5065130;28;19946;-73
2024/03/05 06:59:34;;;;;;;;;;;;;;;6.68;100.00;96150.91;5065393;28;19939;-81
2024/03/05 07:02:00;;;;;;;;;;;;;;;6.72;100.00;96156.53;5046992;28;19933;-80
2024/03/05 07:04:27;;;;;;;;;;;;;;;6.73;100.00;96155.50;5046499;28;21027;-81
2024/03/05 07:06:56;;;;;;;;;;;;;;;6.74;100.00;96154.53;5064815;28;19952;-79
2024/03/05 07:09:30;;;;;;;;;;;;;;;6.74;100.00;96162.34;5063632;28;20141;-79
2024/03/05 07:11:57;;;;;;;;;;;;;;;6.74;100.00;96157.13;5064701;28;20091;-80
2024/03/05 07:14:24;;;;;;;;;;;;;;;6.75;100.00;96161.34;5064514;28;19935;-82
2024/03/05 07:16:52;;;;;;;;;;;;;;;6.79;100.00;96161.75;5047672;28;19934;-72
2024/03/05 07:19:17;;;;;;;;;;;;;;;6.80;100.00;96158.13;5064430;28;19936;-72
2024/03/05 07:21:44;;;;;;;;;;;;;;;6.78;100.00;96163.53;5065019;28;19937;-72
2024/03/05 07:24:10;;;;;;;;;;;;;;;6.75;100.00;96165.75;5064390;28;20127;-72
2024/03/05 07:26:37;;;;;;;;;;;;;;;6.74;100.00;96164.94;5064367;28;19939;-72
2024/03/05 07:29:03;;;;;;;;;;;;;;;6.76;100.00;96167.34;5064281;28;19953;-72
2024/03/05 07:31:29;;;;;;;;;;;;;;;6.78;100.00;96171.34;5064385;28;20001;-68
2024/03/05 07:33:54;;;;;;;;;;;;;;;6.83;100.00;96173.38;5046561;28;20240;-72
2024/03/05 07:36:21;;;;;;;;;;;;;;;6.84;100.00;96167.16;5063845;28;19974;-69
2024/03/05 07:38:47;;;;;;;;;;;;;;;6.82;100.00;96169.16;5046917;28;19944;-68
2024/03/05 07:41:13;;;;;;;;;;;;;;;6.78;100.00;96171.34;5064089;28;19955;-68
2024/03/05 07:43:38;;;;;;;;;;;;;;;6.80;100.00;96173.75;5064102;28;19950;-68
2024/03/05 07:46:04;;;;;;;;;;;;;;;6.82;100.00;96175.16;5064011;28;19940;-69
2024/03/05 07:48:30;;;;;;;;;;;;;;;6.85;100.00;96173.97;5064055;28;19937;-69
2024/03/05 07:50:56;;;;;;;;;;;;;;;6.88;100.00;96178.78;5046804;28;19986;-68
2024/03/05 07:53:24;;;;;;;;;;;;;;;6.90;100.00;96176.75;5064531;28;19936;-80
2024/03/05 07:55:50;;;;;;;;;;;;;;;6.91;100.00;96186.22;5064239;28;19939;-83
2024/03/05 07:58:16;;;;;;;;;;;;;;;6.91;100.00;96181.00;5064701;28;20102;-82
2024/03/05 08:00:41;;;;;;;;;;;;;;;6.89;100.00;96185.59;5030424;28;19941;-81
2024/03/05 08:03:07;;;;;;;;;;;;;;;6.93;100.00;96183.38;5064403;28;19942;-76
2024/03/05 08:05:34;;;;;;;;;;;;;;;7.29;100.00;96190.78;5046682;28;19944;-82
2024/03/05 08:08:00;;;;;;;;;;;;;;;7.41;100.00;96177.91;5046055;28;19953;-69
2024/03/05 08:10:26;;;;;;;;;;;;;;;7.39;100.00;96185.97;5046524;28;19951;-73
2024/03/05 08:12:54;;;;;;;;;;;;;;;7.29;100.00;96188.19;5064049;28;19942;-80
2024/03/05 08:15:20;;;;;;;;;;;;;;;7.19;100.00;96187.78;5063710;28;19931;-80
2024/03/05 08:17:47;;;;;;;;;;;;;;;7.11;100.00;96194.00;5063777;28;19934;-77
2024/03/05 08:20:14;;;;;;;;;;;;;;;7.26;100.00;96191.19;5065290;28;19942;-76
2024/03/05 08:22:41;;;;;;;;;;;;;;;7.69;100.00;96199.31;5033459;28;20106;-80
2024/03/05 08:25:09;;;;;;;;;;;;;;;7.93;100.00;96199.63;5067774;28;20240;-84
2024/03/05 08:27:38;;;;;;;;;;;;;;;7.86;100.00;96199.66;5068180;28;20128;-69
2024/03/05 08:30:08;;;;;;;;;;;;;;;7.71;100.00;96197.31;5067595;28;20143;-73
2024/03/05 08:32:34;;;;;;;;;;;;;;;7.62;100.00;96203.78;5067500;28;19937;-72
2024/03/05 08:35:00;;;;;;;;;;;;;;;7.56;100.00;96199.38;5067460;28;19929;-72
2024/03/05 08:37:26;;;;;;;;;;;;;;;7.44;100.00;96209.63;5067338;28;19960;-72
2024/03/05 08:39:52;;;;;;;;;;;;;;;7.34;100.00;96205.81;5067463;28;20286;-72
2024/03/05 08:42:18;;;;;;;;;;;;;;;7.27;100.00;96213.66;5067883;28;19970;-72
2024/03/05 08:44:44;;;;;;;;;;;;;;;7.16;100.00;96204.66;5067361;28;20129;-73
2024/03/05 08:47:12;;;;;;;;;;;;;;;7.13;100.00;96209.47;5067792;28;19959;-71
2024/03/05 08:49:38;;;;;;;;;;;;;;;7.13;100.00;96209.47;5049295;28;19960;-72
2024/03/05 08:52:04;;;;;;;;;;;;;;;7.21;100.00;96210.03;5067176;28;19937;-72
2024/03/05 08:54:31;;;;;;;;;;;;;;;7.25;100.00;96210.44;5050076;28;19928;-72
2024/03/05 08:56:58;;;;;;;;;;;;;;;7.21;100.00;96215.25;5049272;28;20131;-72
2024/03/05 08:59:27;;;;;;;;;;;;;;;7.17;100.00;96208.06;5067334;28;19935;-72
2024/03/05 09:01:53;;;;;;;;;;;;;;;7.15;100.00;96218.69;5066991;28;19951;-72
2024/03/05 09:04:20;;;;;;;;;;;;;;;7.13;100.00;96218.06;5066996;28;19934;-68
2024/03/05 09:06:46;;;;;;;;;;;;;;;7.14;100.00;96217.09;5067810;28;19937;-73
2024/03/05 09:09:12;;;;;;;;;;;;;;;7.11;100.00;96223.47;5066746;28;19953;-73
2024/03/05 09:11:38;;;;;;;;;;;;;;;7.08;100.00;96226.50;5067625;28;19976;-72
2024/03/05 09:14:05;;;;;;;;;;;;;;;7.04;100.00;96227.13;5066821;28;19943;-73
2024/03/05 09:16:31;;;;;;;;;;;;;;;7.01;100.00;96220.47;5067238;28;19959;-73
2024/03/05 09:18:57;;;;;;;;;;;;;;;6.95;100.00;96218.69;5067104;28;19942;-73
2024/03/05 09:21:23;;;;;;;;;;;;;;;6.93;100.00;96233.72;5067391;28;19952;-73
2024/03/05 09:23:50;;;;;;;;;;;;;;;6.90;100.00;96224.47;5066536;28;19937;-68
2024/03/05 09:26:16;;;;;;;;;;;;;;;6.91;100.00;96231.31;5066512;28;19942;-73
2024/03/05 09:28:41;;;;;;;;;;;;;;;6.91;100.00;96223.50;5049040;28;19953;-72
2024/03/05 09:31:07;;;;;;;;;;;;;;;6.97;100.00;96224.50;5065677;28;19958;-72
2024/03/05 09:33:33;;;;;;;;;;;;;;;7.04;100.00;96232.31;5066703;28;19990;-72
2024/03/05 09:35:59;;;;;;;;;;;;;;;7.08;100.00;96225.72;5066345;28;19953;-72
2024/03/05 09:38:25;;;;;;;;;;;;;;;7.13;100.00;96227.72;5066197;28;19978;-72
2024/03/05 09:40:51;;;;;;;;;;;;;;;7.11;100.00;96231.31;5066916;28;19946;-72
2024/03/05 09:43:21;;;;;;;;;;;;;;;7.08;100.00;96228.31;5066175;28;19963;-73
2024/03/05 09:45:47;;;;;;;;;;;;;;;7.03;100.00;96223.69;5066107;28;19927;-73
2024/03/05 09:48:17;;;;;;;;;;;;;;;7.01;100.00;96227.50;5065912;28;19930;-73
2024/03/05 09:50:46;;;;;;;;;;;;;;;7.03;100.00;96233.31;5048409;28;19952;-73
2024/03/05 09:53:13;;;;;;;;;;;;;;;7.10;100.00;96224.50;5066041;28;19935;-73
2024/03/05 09:55:39;;;;;;;;;;;;;;;7.16;100.00;96230.72;5032176;28;19944;-72
2024/03/05 09:58:11;;;;;;;;;;;;;;;7.56;100.00;96227.25;5049102;28;19938;-73
2024/03/05 10:00:37;;;;;;;;;;;;;;;7.91;100.00;96223.34;5066637;28;19985;-73
2024/03/05 10:03:03;;;;;;;;;;;;;;;7.91;100.00;96218.09;5065926;28;19936;-72
2024/03/05 10:05:29;;;;;;;;;;;;;;;7.85;100.00;96218.13;5066387;28;19944;-72
2024/03/05 10:07:55;;;;;;;;;;;;;;;7.77;100.00;96224.41;5066276;28;19953;-72
2024/03/05 10:10:21;;;;;;;;;;;;;;;7.71;100.00;96230.44;5065634;28;20259;-72
2024/03/05 10:12:49;;;;;;;;;;;;;;;7.69;100.00;96235.88;5048340;28;19937;-72
2024/03/05 10:15:23;;;;;;;;;;;;;;;7.67;100.00;96226.63;5065710;28;20119;-72
2024/03/05 10:17:50;;;;;;;;;;;;;;;7.62;100.00;96223.81;5065614;28;19930;-68
2024/03/05 10:20:42;;;;;;;;;;;;;;;7.59;100.00;96237.28;5065631;28;19925;-68
2024/03/05 10:23:10;;;;;;;;;;;;;;;7.62;100.00;96244.69;5063703;28;19944;-68
2024/03/05 10:25:36;;;;;;;;;;;;;;;7.66;100.00;96246.69;5065493;28;19939;-68
2024/03/05 10:28:02;;;;;;;;;;;;;;;7.67;100.00;96245.69;5065421;28;19965;-68
2024/03/05 10:30:32;;;;;;;;;;;;;;;7.68;100.00;96241.28;5048113;28;20317;-68
2024/03/05 10:32:59;;;;;;;;;;;;;;;7.65;100.00;96232.06;5065281;28;19941;-68
2024/03/05 10:35:25;;;;;;;;;;;;;;;7.63;100.00;96233.28;5065332;28;19942;-71
2024/03/05 10:38:07;;;;;;;;;;;;;;;7.63;100.00;96247.13;5047427;28;19969;-71
2024/03/05 10:40:37;;;;;;;;;;;;;;;7.64;100.00;96242.69;5065965;28;19988;-73
2024/03/05 10:43:06;;;;;;;;;;;;;;;7.61;100.00;96236.06;5065071;28;19940;-73
2024/03/05 10:45:34;;;;;;;;;;;;;;;7.60;100.00;96226.66;5065911;28;19936;-72
2024/03/05 10:48:00;;;;;;;;;;;;;;;7.60;100.00;96239.72;5064556;28;20125;-72
2024/03/05 10:50:27;;;;;;;;;;;;;;;7.61;100.00;96235.28;5064928;28;19984;-73
2024/03/05 10:52:56;;;;;;;;;;;;;;;7.64;100.00;96235.69;5065034;28;19934;-72
2024/03/05 10:55:23;;;;;;;;;;;;;;;7.69;100.00;96243.69;5064968;28;19935;-78
2024/03/05 11:00:35;;;;;;;;;;;;;;;7.73;100.00;96233.66;5065368;28;20235;-78
2024/03/05 11:03:12;;;;;;;;;;;;;;;7.75;100.00;96241.25;5046933;28;20119;-78
2024/03/05 11:05:47;;;;;;;;;;;;;;;7.73;100.00;96241.47;5064705;28;19937;-78
2024/03/05 11:08:16;;;;;;;;;;;;;;;7.75;100.00;96239.47;5064610;28;19953;-78
2024/03/05 11:10:43;;;;;;;;;;;;;;;7.75;100.00;96234.25;5064595;28;19952;-78
2024/03/05 11:13:11;;;;;;;;;;;;;;;7.76;100.00;96233.22;5065176;28;19942;-71
2024/03/05 11:15:37;;;;;;;;;;;;;;;7.76;100.00;96225.41;5047461;28;19938;-74
2024/03/05 11:18:03;;;;;;;;;;;;;;;7.71;100.00;96236.47;5046650;28;19944;-73
2024/03/05 11:20:42;;;;;;;;;;;;;;;7.70;100.00;96253.09;5046905;28;19998;-73
2024/03/05 11:23:13;;;;;;;;;;;;;;;7.69;100.00;96248.91;5030818;28;19940;-74
2024/03/05 11:25:46;;;;;;;;;;;;;;;7.67;100.00;96234.47;5064598;28;19935;-74
2024/03/05 11:28:21;;;;;;;;;;;;;;;7.64;100.00;96251.34;5065106;28;19945;-74
2024/03/05 11:30:47;;;;;;;;;;;;;;;7.62;100.00;96242.91;5047106;28;19948;-73
2024/03/05 11:33:19;;;;;;;;;;;;;;;7.61;100.00;96249.13;5047327;28;20101;-74
2024/03/05 11:35:45;;;;;;;;;;;;;;;7.67;100.00;96258.75;5046989;28;20208;-79
2024/03/05 11:38:16;;;;;;;;;;;;;;;7.73;100.00;96254.53;5063953;28;19964;-78
2024/03/05 11:40:45;;;;;;;;;;;;;;;7.82;100.00;96253.28;5046162;28;19951;-78
2024/03/05 11:43:10;;;;;;;;;;;;;;;7.87;100.00;96240.44;5063948;28;19957;-80
2024/03/05 11:45:46;;;;;;;;;;;;;;;7.92;100.00;96247.66;5063953;28;19938;-78
2024/03/05 11:48:13;;;;;;;;;;;;;;;7.95;100.00;96244.63;5063768;28;19945;-79
2024/03/05 11:50:39;;;;;;;;;;;;;;;7.98;100.00;96249.44;5063808;28;19950;-73
2024/03/05 11:53:09;;;;;;;;;;;;;;;8.00;100.00;96229.16;5046773;28;20005;-68
2024/03/05 11:55:35;;;;;;;;;;;;;;;8.03;100.00;96225.31;5064230;28;19941;-69
2024/03/05 11:58:01;;;;;;;;;;;;;;;8.09;100.00;96216.66;5046729;28;19945;-68
2024/03/05 12:00:28;;;;;;;;;;;;;;;8.18;100.00;96225.84;5064060;28;19948;-69
2024/03/05 12:02:57;;;;;;;;;;;;;;;8.24;100.00;96219.78;5063809;28;19939;-69
2024/03/05 12:05:23;;;;;;;;;;;;;;;8.34;100.00;96240.25;5063819;28;19938;-69
2024/03/05 12:08:08;;;;;;;;;;;;;;;8.43;100.00;96220.72;5063713;28;19942;-68
2024/03/05 12:10:35;;;;;;;;;;;;;;;8.52;100.00;96216.06;5063735;28;19968;-72
2024/03/05 12:13:01;;;;;;;;;;;;;;;8.63;100.00;96225.03;5064273;28;20227;-72
2024/03/05 12:15:35;;;;;;;;;;;;;;;8.64;100.00;96190.84;5063746;28;20225;-71
2024/03/05 12:18:10;;;;;;;;;;;;;;;8.66;100.00;96198.50;5064488;28;19934;-71
2024/03/05 12:20:36;;;;;;;;;;;;;;;8.70;100.00;96197.06;5063670;28;19940;-71
2024/03/05 12:23:03;;;;;;;;;;;;;;;8.73;100.00;96188.78;5063693;28;19934;-72
2024/03/05 12:25:29;;;;;;;;;;;;;;;8.77;100.00;96205.66;5064402;28;20101;-72
2024/03/05 12:27:55;;;;;;;;;;;;;;;8.81;100.00;96198.19;5063651;28;19937;-69
2024/03/05 12:30:21;;;;;;;;;;;;;;;8.86;100.00;96200.94;5063766;28;19955;-72
2024/03/05 12:32:54;;;;;;;;;;;;;;;8.94;100.00;96169.31;5063815;28;20187;-72
2024/03/05 12:35:23;;;;;;;;;;;;;;;9.06;100.00;96185.91;5064066;28;19957;-73
2024/03/05 12:37:50;;;;;;;;;;;;;;;9.18;100.00;96174.75;5063393;28;20133;-72
2024/03/05 12:40:20;;;;;;;;;;;;;;;9.27;100.00;96183.91;5063490;28;20140;-73
2024/03/05 12:42:46;;;;;;;;;;;;;;;9.27;100.00;96137.63;5062816;28;20239;-72
2024/03/05 12:45:15;;;;;;;;;;;;;;;9.20;100.00;96160.44;5046275;28;19954;-73
2024/03/05 12:47:42;;;;;;;;;;;;;;;9.07;100.00;96148.28;5063505;28;19935;-72
2024/03/05 12:50:08;;;;;;;;;;;;;;;8.97;100.00;96168.91;5063362;28;19954;-73
2024/03/05 12:52:34;;;;;;;;;;;;;;;8.90;100.00;96173.38;5046308;28;19939;-72